Map

Track Data

SID SEASON NUMBER BASIN SUBBASIN NAME ISO_TIME NATURE LAT LON WMO_WIND WMO_PRES WMO_AGENCY TRACK_TYPE DIST2LAND LANDFALL IFLAG USA_AGENCY USA_ATCF_ID USA_LAT USA_LON USA_RECORD USA_STATUS USA_WIND USA_PRES USA_SSHS USA_R34_NE USA_R34_SE USA_R34_SW USA_R34_NW USA_R50_NE USA_R50_SE USA_R50_SW USA_R50_NW USA_R64_NE USA_R64_SE USA_R64_SW USA_R64_NW USA_POCI USA_ROCI USA_RMW USA_EYE TOKYO_LAT TOKYO_LON TOKYO_GRADE TOKYO_WIND TOKYO_PRES TOKYO_R50_DIR TOKYO_R50_LONG TOKYO_R50_SHORT TOKYO_R30_DIR TOKYO_R30_LONG TOKYO_R30_SHORT TOKYO_LAND CMA_LAT CMA_LON CMA_CAT CMA_WIND CMA_PRES HKO_LAT HKO_LON HKO_CAT HKO_WIND HKO_PRES NEWDELHI_LAT NEWDELHI_LON NEWDELHI_GRADE NEWDELHI_WIND NEWDELHI_PRES NEWDELHI_CI NEWDELHI_DP NEWDELHI_POCI REUNION_LAT REUNION_LON REUNION_TYPE REUNION_WIND REUNION_PRES REUNION_TNUM REUNION_CI REUNION_RMW REUNION_R34_NE REUNION_R34_SE REUNION_R34_SW REUNION_R34_NW REUNION_R50_NE REUNION_R50_SE REUNION_R50_SW REUNION_R50_NW REUNION_R64_NE REUNION_R64_SE REUNION_R64_SW REUNION_R64_NW BOM_LAT BOM_LON BOM_TYPE BOM_WIND BOM_PRES BOM_TNUM BOM_CI BOM_RMW BOM_R34_NE BOM_R34_SE BOM_R34_SW BOM_R34_NW BOM_R50_NE BOM_R50_SE BOM_R50_SW BOM_R50_NW BOM_R64_NE BOM_R64_SE BOM_R64_SW BOM_R64_NW BOM_ROCI BOM_POCI BOM_EYE BOM_POS_METHOD BOM_PRES_METHOD NADI_LAT NADI_LON NADI_CAT NADI_WIND NADI_PRES WELLINGTON_LAT WELLINGTON_LON WELLINGTON_WIND WELLINGTON_PRES DS824_LAT DS824_LON DS824_STAGE DS824_WIND DS824_PRES TD9636_LAT TD9636_LON TD9636_STAGE TD9636_WIND TD9636_PRES TD9635_LAT TD9635_LON TD9635_WIND TD9635_PRES TD9635_ROCI NEUMANN_LAT NEUMANN_LON NEUMANN_CLASS NEUMANN_WIND NEUMANN_PRES MLC_LAT MLC_LON MLC_CLASS MLC_WIND MLC_PRES USA_GUST BOM_GUST BOM_GUST_PER REUNION_GUST REUNION_GUST_PER USA_SEAHGT USA_SEARAD_NE USA_SEARAD_SE USA_SEARAD_SW USA_SEARAD_NW STORM_SPEED STORM_DIR
1948203N13128 1948 45 WP MM NOT_NAMED 1948-07-20 12:00:00 NR 13.1000 127.900 main 279 273 __________O___ -1 13.1000 127.900 2 3 315
1948203N13128 1948 45 WP MM NOT_NAMED 1948-07-20 15:00:00 NR 13.2014 127.801 main 273 268 __________P___ -1 13.2014 127.801 2 4 314
1948203N13128 1948 45 WP MM NOT_NAMED 1948-07-20 18:00:00 NR 13.3423 127.642 main 259 252 __________P___ -1 13.3423 127.642 2 6 310
1948203N13128 1948 45 WP MM NOT_NAMED 1948-07-20 21:00:00 NR 13.5622 127.362 main 258 241 __________P___ -1 13.5622 127.362 2 9 308
1948203N13128 1948 45 WP MM NOT_NAMED 1948-07-21 00:00:00 NR 13.9000 126.900 main 241 209 __________O___ -1 13.9000 126.900 2 14 306
1948203N13128 1948 45 WP MM NOT_NAMED 1948-07-21 03:00:00 NR 14.3724 126.209 main 202 147 __________P___ -1 14.3724 126.209 2 18 303
1948203N13128 1948 45 WP MM NOT_NAMED 1948-07-21 06:00:00 NR 14.9083 125.307 main 147 134 __________P___ -1 14.9083 125.307 2 22 299
1948203N13128 1948 45 WP MM NOT_NAMED 1948-07-21 09:00:00 NR 15.4150 124.225 main 156 106 __________P___ -1 15.4150 124.225 2 24 292
1948203N13128 1948 45 WP MM NOT_NAMED 1948-07-21 12:00:00 NR 15.8000 123.000 main 96 10 __________O___ -1 15.8000 123.000 2 26 281
1948203N13128 1948 45 WP MM NOT_NAMED 1948-07-21 15:00:00 NR 15.8926 121.602 main 0 0 __________P___ -1 15.8926 121.602 2 28 271
1948203N13128 1948 45 WP MM NOT_NAMED 1948-07-21 18:00:00 NR 15.8595 120.098 main 0 0 __________P___ -1 15.8595 120.098 2 29 268
1948203N13128 1948 45 WP MM NOT_NAMED 1948-07-21 21:00:00 NR 15.7958 118.620 main 119 119 __________P___ -1 15.7958 118.620 2 27 269
1948203N13128 1948 45 WP MM NOT_NAMED 1948-07-22 00:00:00 NR 15.8000 117.300 main 257 257 __________O___ -1 15.8000 117.300 4 23 275
1948203N13128 1948 45 WP MM NOT_NAMED 1948-07-22 03:00:00 NR 15.9850 116.271 main 363 363 __________P___ -1 15.9850 116.271 4 19 284
1948203N13128 1948 45 WP MM NOT_NAMED 1948-07-22 06:00:00 NR 16.2598 115.412 main 460 460 __________P___ -1 16.2598 115.412 4 17 292
1948203N13128 1948 45 WP MM NOT_NAMED 1948-07-22 09:00:00 NR 16.6049 114.671 main 508 421 __________P___ -1 16.6049 114.671 4 15 299
1948203N13128 1948 45 WP MM NOT_NAMED 1948-07-22 12:00:00 NR 17.0000 114.000 main 421 334 __________O___ -1 17.0000 114.000 4 16 302
1948203N13128 1948 45 WP MM NOT_NAMED 1948-07-22 15:00:00 NR 17.4425 113.282 main 334 253 __________P___ -1 17.4425 113.282 4 16 305
1948203N13128 1948 45 WP MM NOT_NAMED 1948-07-22 18:00:00 NR 17.9215 112.624 main 243 171 __________P___ -1 17.9215 112.624 4 15 308
1948203N13128 1948 45 WP MM NOT_NAMED 1948-07-22 21:00:00 NR 18.3898 112.029 main 162 97 __________P___ -1 18.3898 112.029 4 14 309
1948203N13128 1948 45 WP MM NOT_NAMED 1948-07-23 00:00:00 NR 18.8000 111.500 main 97 49 __________O___ -1 18.8000 111.500 4 12 307
1948203N13128 1948 45 WP MM NOT_NAMED 1948-07-23 03:00:00 NR 19.0926 111.030 main 43 0 __________P___ -1 19.0926 111.030 4 10 302
1948203N13128 1948 45 WP MM NOT_NAMED 1948-07-23 06:00:00 NR 19.3236 110.623 main 0 0 __________P___ -1 19.3236 110.623 4 8 300
1948203N13128 1948 45 WP MM NOT_NAMED 1948-07-23 09:00:00 NR 19.5179 110.255 main 0 0 __________P___ -1 19.5179 110.255 4 8 299
1948203N13128 1948 45 WP MM NOT_NAMED 1948-07-23 12:00:00 NR 19.7000 109.900 main 0 0 __________O___ -1 19.7000 109.900 4 8 299
1948203N13128 1948 45 WP MM NOT_NAMED 1948-07-23 15:00:00 NR 19.8898 109.537 main 0 0 __________P___ -1 19.8898 109.537 4 8 299
1948203N13128 1948 45 WP MM NOT_NAMED 1948-07-23 18:00:00 NR 20.0886 109.164 main 35 35 __________P___ -1 20.0886 109.164 4 8 300
1948203N13128 1948 45 WP MM NOT_NAMED 1948-07-23 21:00:00 NR 20.2931 108.784 main 76 76 __________P___ -1 20.2931 108.784 4 8 300
1948203N13128 1948 45 WP MM NOT_NAMED 1948-07-24 00:00:00 NR 20.5000 108.400 main 113 __________O___ -1 20.5000 108.400 4 8 300

Digital Typhoon Data and Search

About IBTrACS Database

This database is a web-friendly format of International Best Track Archive for Climate Stewardship (IBTrACS), a global best track data archive curated by NOAA dating back to 1842.

Updated: 2021-11-26